Terminal Aerodrome Forecast
Issued by NWS

Home | Current Version | Previous Version | Text Only | Print | Product List | Glossary On
Versions: 1 2 3 4 5 6 7 8 9 10 11 12 13
000
FTUS42 TJSJ 030536
TAFJSJ
TAF
TJSJ 030536Z 0306/0406 VRB03KT P6SM SKC
     FM031450 12013G20KT P6SM FEW030
     FM032250 12007KT P6SM SKC=

USA.gov is the U.S. government's official web portal to all federal, state and local government web resources and services.